createdAt,value
2017-10-14T00:00:29.545Z,40.27
2017-10-14T00:02:57.044Z,52.83
2017-10-14T00:05:24.572Z,38.63
2017-10-14T00:07:52.125Z,53.20
2017-10-14T00:10:19.685Z,44.10
2017-10-14T00:12:47.195Z,30.47
2017-10-14T00:15:14.823Z,40.93
2017-10-14T00:17:42.315Z,43.13
2017-10-14T00:20:09.806Z,41.53
2017-10-14T00:22:37.412Z,40.10
2017-10-14T00:25:04.941Z,35.37
2017-10-14T00:27:32.522Z,32.03
2017-10-14T00:30:00.017Z,42.97
2017-10-14T00:32:27.566Z,49.23
2017-10-14T00:34:55.064Z,57.33
2017-10-14T00:37:22.651Z,58.93
2017-10-14T00:39:50.242Z,37.67
2017-10-14T00:42:17.738Z,28.50
2017-10-14T00:44:45.228Z,29.93
2017-10-14T00:47:12.758Z,39.00
2017-10-14T00:49:40.314Z,40.07
2017-10-14T00:52:07.806Z,33.87
2017-10-14T00:54:35.299Z,45.37
2017-10-14T00:57:02.848Z,56.97
2017-10-14T00:59:30.379Z,33.70
2017-10-14T01:01:57.875Z,27.93
2017-10-14T01:04:25.409Z,49.20
2017-10-14T01:06:52.962Z,37.10
2017-10-14T01:09:20.456Z,62.83
2017-10-14T01:11:47.998Z,41.43
2017-10-14T01:14:15.488Z,46.87
2017-10-14T01:16:43.089Z,44.57
2017-10-14T01:19:10.640Z,31.80
2017-10-14T01:21:38.132Z,41.73
2017-10-14T01:24:05.668Z,62.10
2017-10-14T01:26:33.230Z,42.57
2017-10-14T01:29:00.723Z,35.93
2017-10-14T01:31:28.243Z,39.23
2017-10-14T01:33:55.801Z,43.53
2017-10-14T01:36:23.300Z,46.00
2017-10-14T01:38:50.803Z,26.17
2017-10-14T01:41:18.324Z,39.67
2017-10-14T01:43:45.844Z,36.20
2017-10-14T01:46:13.410Z,38.83
2017-10-14T01:48:40.907Z,36.73
2017-10-14T01:51:08.411Z,39.30
2017-10-14T01:53:35.950Z,34.40
2017-10-14T01:56:03.507Z,36.17
2017-10-14T01:58:31.012Z,35.33
2017-10-14T02:00:58.551Z,32.13
2017-10-14T02:03:26.045Z,33.20
2017-10-14T02:05:53.560Z,42.83
2017-10-14T02:08:21.084Z,38.73
2017-10-14T02:10:48.620Z,48.83
2017-10-14T02:13:16.117Z,36.37
2017-10-14T02:15:43.613Z,38.80
2017-10-14T02:18:11.251Z,59.40
2017-10-14T02:20:38.808Z,44.00
2017-10-14T02:23:06.292Z,31.17
2017-10-14T02:25:33.932Z,28.03
2017-10-14T02:28:01.432Z,38.00
2017-10-14T02:30:28.926Z,34.50
2017-10-14T02:32:56.474Z,35.80
2017-10-14T02:35:23.976Z,29.43
2017-10-14T02:37:51.491Z,27.30
2017-10-14T02:40:19.026Z,26.00
2017-10-14T02:42:46.512Z,31.23
2017-10-14T02:45:14.052Z,29.97
2017-10-14T02:47:41.545Z,41.20
2017-10-14T02:50:09.119Z,35.90
2017-10-14T02:52:36.639Z,26.50
2017-10-14T02:55:04.178Z,31.90
2017-10-14T02:57:31.678Z,34.37
2017-10-14T02:59:59.175Z,31.13
2017-10-14T03:02:26.712Z,32.87
2017-10-14T03:04:54.249Z,26.23
2017-10-14T03:07:21.743Z,28.90
2017-10-14T03:09:49.233Z,26.43
2017-10-14T03:12:16.790Z,28.67
2017-10-14T03:14:44.284Z,38.43
2017-10-14T03:17:11.783Z,29.40
2017-10-14T03:19:39.331Z,27.73
2017-10-14T03:22:06.825Z,30.00
2017-10-14T03:24:34.318Z,25.17
2017-10-14T03:27:01.891Z,29.90
2017-10-14T03:29:29.383Z,28.07
2017-10-14T03:31:56.877Z,24.00
2017-10-14T03:34:24.460Z,18.17
2017-10-14T03:36:52.019Z,36.83
2017-10-14T03:39:19.512Z,21.10
2017-10-14T03:44:20.872Z,21.20
2017-10-14T03:46:48.510Z,23.53
2017-10-14T03:49:16.010Z,23.70
2017-10-14T03:51:43.504Z,24.33
2017-10-14T03:54:11.066Z,35.93
2017-10-14T03:56:38.562Z,25.40
2017-10-14T03:59:06.055Z,20.73
2017-10-14T04:01:33.598Z,21.43
2017-10-14T04:04:01.092Z,20.97
2017-10-14T04:06:28.590Z,20.10
2017-10-14T04:08:56.241Z,20.30
2017-10-14T04:11:23.737Z,21.73
2017-10-14T04:13:51.237Z,24.70
2017-10-14T04:16:18.782Z,21.07
2017-10-14T04:18:46.281Z,20.37
2017-10-14T04:21:13.831Z,21.50
2017-10-14T04:23:41.388Z,23.00
2017-10-14T04:26:08.953Z,24.10
2017-10-14T04:28:36.448Z,18.30
2017-10-14T04:31:03.977Z,23.40
2017-10-14T04:33:31.471Z,25.90
2017-10-14T04:35:59.021Z,24.43
2017-10-14T04:38:26.508Z,21.10
2017-10-14T04:40:54.014Z,22.40
2017-10-14T04:43:21.543Z,24.53
2017-10-14T04:45:49.053Z,22.53
2017-10-14T04:48:16.565Z,21.60
2017-10-14T04:50:44.125Z,25.10
2017-10-14T04:53:11.627Z,21.30
2017-10-14T04:55:39.153Z,23.37
2017-10-14T04:58:06.728Z,24.43
2017-10-14T05:00:34.263Z,22.50
2017-10-14T05:03:01.756Z,21.13
2017-10-14T05:05:29.250Z,23.90
2017-10-14T05:07:56.860Z,22.87
2017-10-14T05:10:24.351Z,18.10
2017-10-14T05:12:51.842Z,21.70
2017-10-14T05:15:19.719Z,18.87
2017-10-14T05:17:47.210Z,25.03
2017-10-14T05:20:14.712Z,23.20
2017-10-14T05:22:42.318Z,20.30
2017-10-14T05:25:09.862Z,21.80
2017-10-14T05:27:37.438Z,22.23
2017-10-14T05:30:04.965Z,26.53
2017-10-14T05:32:32.490Z,24.93
2017-10-14T05:34:59.987Z,24.33
2017-10-14T05:37:27.548Z,24.63
2017-10-14T05:39:55.049Z,22.00
2017-10-14T05:42:22.593Z,20.23
2017-10-14T05:44:50.099Z,23.10
2017-10-14T05:47:17.683Z,22.90
2017-10-14T05:49:45.235Z,26.43
2017-10-14T05:52:12.816Z,25.67
2017-10-14T05:54:40.313Z,26.30
2017-10-14T05:57:07.840Z,24.80
2017-10-14T05:59:35.334Z,26.80
2017-10-14T06:02:02.833Z,25.00
2017-10-14T06:04:30.503Z,25.87
2017-10-14T06:06:58.064Z,26.40
2017-10-14T06:09:25.616Z,20.57
2017-10-14T06:11:53.156Z,23.13
2017-10-14T06:14:20.659Z,23.63
2017-10-14T06:16:48.215Z,25.53
2017-10-14T06:19:15.756Z,26.00
2017-10-14T06:21:43.253Z,22.67
2017-10-14T06:24:10.891Z,18.80
2017-10-14T06:26:38.388Z,19.33
2017-10-14T06:29:05.987Z,21.03
2017-10-14T06:31:33.523Z,28.03
2017-10-14T06:34:01.022Z,21.87
2017-10-14T06:36:28.512Z,24.03
2017-10-14T06:38:56.056Z,22.63
2017-10-14T06:41:23.547Z,29.57
2017-10-14T06:43:51.056Z,21.10
2017-10-14T06:46:18.607Z,23.30
2017-10-14T06:48:46.160Z,33.93
2017-10-14T06:51:13.666Z,24.27
2017-10-14T06:53:41.166Z,19.67
2017-10-14T06:56:08.715Z,22.43
2017-10-14T06:58:36.201Z,26.23
2017-10-14T07:01:03.698Z,18.53
2017-10-14T07:03:31.240Z,18.40
2017-10-14T07:05:58.730Z,19.40
2017-10-14T07:08:26.228Z,21.03
2017-10-14T07:10:53.788Z,18.90
2017-10-14T07:13:21.341Z,17.03
2017-10-14T07:15:48.903Z,21.73
2017-10-14T07:18:16.482Z,19.80
2017-10-14T07:20:43.983Z,20.17
2017-10-14T07:23:11.474Z,22.90
2017-10-14T07:25:39.018Z,18.87
2017-10-14T07:28:06.514Z,17.73
2017-10-14T07:30:34.016Z,17.20
2017-10-14T07:33:01.574Z,16.40
2017-10-14T07:35:29.072Z,18.37
2017-10-14T07:37:56.565Z,17.00
2017-10-14T07:40:24.196Z,15.57
2017-10-14T07:42:51.698Z,17.20
2017-10-14T07:45:19.187Z,18.70
2017-10-14T07:47:46.760Z,18.30
2017-10-14T07:50:14.252Z,20.20
2017-10-14T07:52:41.767Z,19.07
2017-10-14T07:55:09.328Z,15.20
2017-10-14T07:57:36.822Z,14.97
2017-10-14T08:00:04.317Z,14.20
2017-10-14T08:02:31.851Z,15.27
2017-10-14T08:04:59.345Z,16.93
2017-10-14T08:07:26.837Z,18.70
2017-10-14T08:09:54.370Z,15.80
2017-10-14T08:12:21.862Z,16.23
2017-10-14T08:14:49.347Z,13.77
2017-10-14T08:17:16.963Z,16.43
2017-10-14T08:19:44.450Z,15.73
2017-10-14T08:22:12.000Z,15.27
2017-10-14T08:24:39.559Z,11.73
2017-10-14T08:27:07.048Z,15.30
2017-10-14T08:29:34.542Z,14.17
2017-10-14T08:32:02.088Z,13.93
2017-10-14T08:34:29.588Z,12.17
2017-10-14T08:36:57.091Z,16.13
2017-10-14T08:39:24.641Z,13.40
2017-10-14T08:41:52.131Z,15.27
2017-10-14T08:44:19.672Z,13.10
2017-10-14T08:46:47.205Z,15.77
2017-10-14T08:49:14.712Z,20.07
2017-10-14T08:51:42.286Z,18.90
2017-10-14T08:54:09.784Z,16.07
2017-10-14T08:56:37.291Z,20.50
2017-10-14T08:59:04.855Z,15.37
2017-10-14T09:01:32.352Z,18.60
2017-10-14T09:03:59.848Z,11.13
2017-10-14T09:06:27.394Z,11.07
2017-10-14T09:08:54.897Z,10.83
2017-10-14T09:11:22.402Z,14.30
2017-10-14T09:13:49.924Z,14.40
2017-10-14T09:16:17.422Z,18.13
2017-10-14T09:18:44.968Z,13.83
2017-10-14T09:21:12.492Z,15.30
2017-10-14T09:23:39.987Z,13.07
2017-10-14T09:26:07.513Z,13.63
2017-10-14T09:28:35.062Z,14.87
2017-10-14T09:31:02.556Z,13.10
2017-10-14T09:33:30.078Z,16.20
2017-10-14T09:35:57.600Z,12.00
2017-10-14T09:38:25.197Z,19.33
2017-10-14T09:40:52.696Z,23.03
2017-10-14T09:43:20.204Z,10.70
2017-10-14T09:45:47.753Z,22.03
2017-10-14T09:48:15.348Z,15.57
2017-10-14T09:50:42.847Z,12.60
2017-10-14T09:53:10.394Z,13.53
2017-10-14T09:55:37.895Z,22.67
2017-10-14T09:58:05.400Z,18.03
2017-10-14T10:00:32.937Z,21.77
2017-10-14T10:03:00.428Z,14.90
2017-10-14T10:05:27.915Z,18.43
2017-10-14T10:07:55.503Z,18.70
2017-10-14T10:10:23.004Z,16.17
2017-10-14T10:12:50.516Z,21.33
2017-10-14T10:15:18.057Z,21.03
2017-10-14T10:17:45.628Z,22.97
2017-10-14T10:20:13.124Z,22.00
2017-10-14T10:22:40.644Z,20.47
2017-10-14T10:25:08.202Z,20.27
2017-10-14T10:27:35.697Z,18.43
2017-10-14T10:30:03.195Z,17.30
2017-10-14T10:32:30.720Z,18.97
2017-10-14T10:34:58.213Z,19.90
2017-10-14T10:37:25.795Z,15.97
2017-10-14T10:42:27.172Z,19.90
2017-10-14T10:44:54.669Z,25.70
2017-10-14T10:47:22.179Z,21.13
2017-10-14T10:49:49.723Z,19.77
2017-10-14T10:52:17.220Z,22.90
2017-10-14T10:54:44.716Z,26.80
2017-10-14T10:57:12.258Z,21.67
2017-10-14T10:59:39.769Z,28.10
2017-10-14T11:02:07.285Z,26.33
2017-10-14T11:04:34.896Z,24.73
2017-10-14T11:07:02.477Z,16.30
2017-10-14T11:09:29.968Z,26.00
2017-10-14T11:11:57.490Z,31.23
2017-10-14T11:14:25.032Z,22.40
2017-10-14T11:16:52.585Z,24.10
2017-10-14T11:19:20.624Z,18.10
2017-10-14T11:21:48.149Z,22.17
2017-10-14T11:24:15.653Z,25.50
2017-10-14T11:26:43.196Z,23.23
2017-10-14T11:29:10.714Z,21.67
2017-10-14T11:31:38.246Z,31.50
2017-10-14T11:34:05.815Z,27.63
2017-10-14T11:36:33.308Z,18.30
2017-10-14T11:39:00.800Z,25.57
2017-10-14T11:41:28.403Z,23.60
2017-10-14T11:43:55.901Z,17.13
2017-10-14T11:46:23.408Z,20.07
2017-10-14T11:48:50.971Z,19.37
2017-10-14T11:51:18.467Z,14.73
2017-10-14T11:53:46.022Z,14.37
2017-10-14T11:56:13.528Z,18.70
2017-10-14T11:58:41.023Z,17.13
2017-10-14T12:01:08.549Z,18.00
2017-10-14T12:03:36.044Z,14.60
2017-10-14T12:06:03.584Z,17.60
2017-10-14T12:08:31.189Z,15.97
2017-10-14T12:10:58.811Z,14.43
2017-10-14T12:13:26.356Z,14.37
2017-10-14T12:15:53.852Z,17.40
2017-10-14T12:18:21.347Z,17.23
2017-10-14T12:20:48.944Z,18.03
2017-10-14T12:23:16.433Z,16.17
2017-10-14T12:25:43.947Z,17.00
2017-10-14T12:28:11.614Z,14.03
2017-10-14T12:30:39.112Z,14.33
2017-10-14T12:33:06.606Z,18.20
2017-10-14T12:35:34.130Z,17.50
2017-10-14T12:38:01.656Z,13.67
2017-10-14T12:40:29.167Z,20.90
2017-10-14T12:42:56.703Z,12.37
2017-10-14T12:45:24.225Z,14.43
2017-10-14T12:47:51.759Z,11.20
2017-10-14T12:50:19.333Z,13.10
2017-10-14T12:52:46.886Z,12.10
2017-10-14T12:55:14.408Z,13.50
2017-10-14T12:57:41.928Z,14.50
2017-10-14T13:00:09.469Z,16.40
2017-10-14T13:02:37.024Z,15.23
2017-10-14T13:05:04.526Z,16.23
2017-10-14T13:07:32.056Z,15.10
2017-10-14T13:09:59.554Z,14.37
2017-10-14T13:12:27.062Z,13.17
2017-10-14T13:14:54.597Z,17.17
2017-10-14T13:17:22.189Z,14.60
2017-10-14T13:19:49.746Z,14.77
2017-10-14T13:22:17.409Z,20.60
2017-10-14T13:24:44.904Z,14.63
2017-10-14T13:27:12.428Z,22.50
2017-10-14T13:29:39.952Z,11.30
2017-10-14T13:32:07.466Z,15.00
2017-10-14T13:34:35.012Z,14.87
2017-10-14T13:37:02.504Z,16.53
2017-10-14T13:39:29.999Z,12.20
2017-10-14T13:41:57.538Z,19.70
2017-10-14T13:44:25.035Z,19.00
2017-10-14T13:46:52.583Z,18.43
2017-10-14T13:49:20.111Z,18.80
2017-10-14T13:51:47.695Z,17.97
2017-10-14T13:54:15.213Z,17.43
2017-10-14T13:56:42.817Z,21.90
2017-10-14T13:59:10.358Z,19.63
2017-10-14T14:01:37.942Z,13.50
2017-10-14T14:04:05.432Z,18.40
2017-10-14T14:06:33.178Z,15.57
2017-10-14T14:09:00.672Z,20.07
2017-10-14T14:11:28.173Z,15.40
2017-10-14T14:13:55.706Z,18.93
2017-10-14T14:16:23.215Z,15.97
2017-10-14T14:18:50.749Z,13.80
2017-10-14T14:21:18.308Z,18.53
2017-10-14T14:23:45.813Z,14.80
2017-10-14T14:26:13.322Z,15.20
2017-10-14T14:28:40.891Z,17.77
2017-10-14T14:31:08.382Z,22.90
2017-10-14T14:33:35.890Z,14.53
2017-10-14T14:36:03.410Z,17.40
2017-10-14T14:38:30.948Z,19.70
2017-10-14T14:40:58.503Z,14.87
2017-10-14T14:43:26.002Z,16.73
2017-10-14T14:45:53.646Z,16.23
2017-10-14T14:48:21.147Z,21.20
2017-10-14T14:50:48.640Z,16.50
2017-10-14T14:53:16.173Z,17.70
2017-10-14T14:55:43.734Z,21.10
2017-10-14T14:58:11.240Z,17.97
2017-10-14T15:00:38.743Z,18.50
2017-10-14T15:03:06.279Z,19.87
2017-10-14T15:05:33.894Z,18.80
2017-10-14T15:08:01.401Z,18.53
2017-10-14T15:10:28.962Z,21.10
2017-10-14T15:12:56.455Z,19.03
2017-10-14T15:15:23.950Z,21.63
2017-10-14T15:17:51.560Z,16.77
2017-10-14T15:20:19.126Z,18.53
2017-10-14T15:22:46.689Z,18.83
2017-10-14T15:25:14.244Z,25.80
2017-10-14T15:27:41.748Z,31.23
2017-10-14T15:30:09.279Z,20.63
2017-10-14T15:32:36.820Z,25.80
2017-10-14T15:35:04.340Z,23.00
2017-10-14T15:37:31.837Z,27.80
2017-10-14T15:39:59.362Z,20.90
2017-10-14T15:42:26.871Z,31.50
2017-10-14T15:44:54.435Z,26.03
2017-10-14T15:47:21.968Z,31.27
2017-10-14T15:49:49.516Z,24.53
2017-10-14T15:52:17.017Z,25.67
2017-10-14T15:54:44.522Z,26.93
2017-10-14T15:57:12.064Z,28.13
2017-10-14T15:59:39.569Z,25.13
2017-10-14T16:02:07.071Z,25.47
2017-10-14T16:04:34.642Z,28.27
2017-10-14T16:07:02.232Z,34.70
2017-10-14T16:09:29.869Z,26.20
2017-10-14T16:11:57.472Z,25.30
2017-10-14T16:14:24.979Z,28.30
2017-10-14T16:16:52.484Z,33.40
2017-10-14T16:19:20.018Z,34.17
2017-10-14T16:21:47.524Z,30.97
2017-10-14T16:24:15.069Z,27.67
2017-10-14T16:26:42.620Z,23.97
2017-10-14T16:29:10.107Z,33.67
2017-10-14T16:31:37.615Z,32.40
2017-10-14T16:34:05.131Z,27.33
2017-10-14T16:36:32.629Z,39.17
2017-10-14T16:39:00.164Z,30.93
2017-10-14T16:41:27.656Z,36.07
2017-10-14T16:43:55.151Z,68.77
2017-10-14T16:46:22.676Z,41.83
2017-10-14T16:48:50.255Z,27.80
2017-10-14T16:51:17.852Z,33.23
2017-10-14T16:53:45.385Z,30.57
2017-10-14T16:56:13.009Z,30.03
2017-10-14T16:58:40.525Z,31.70
2017-10-14T17:01:08.013Z,30.27
2017-10-14T17:03:35.621Z,31.40
2017-10-14T17:06:03.136Z,32.40
2017-10-14T17:08:30.742Z,25.90
2017-10-14T17:10:58.236Z,34.43
2017-10-14T17:13:25.733Z,34.53
2017-10-14T17:15:53.325Z,32.60
2017-10-14T17:18:20.885Z,38.10
2017-10-14T17:20:48.390Z,40.77
2017-10-14T17:23:16.037Z,38.20
2017-10-14T17:25:43.614Z,57.77
2017-10-14T17:28:11.160Z,46.30
2017-10-14T17:30:38.658Z,41.83
2017-10-14T17:33:06.270Z,53.77
2017-10-14T17:35:33.788Z,42.07
2017-10-14T17:38:01.435Z,44.73
2017-10-14T17:40:28.935Z,38.63
2017-10-14T17:42:56.451Z,39.17
2017-10-14T17:45:23.995Z,51.03
2017-10-14T17:47:51.530Z,47.33
2017-10-14T17:50:19.111Z,51.90
2017-10-14T17:52:46.643Z,59.10
2017-10-14T17:55:14.134Z,57.87
2017-10-14T17:57:41.872Z,80.50
2017-10-14T18:00:09.398Z,75.53
2017-10-14T18:02:36.998Z,61.20
2017-10-14T18:05:04.501Z,67.77
2017-10-14T18:07:32.037Z,58.00
2017-10-14T18:09:59.530Z,50.73
2017-10-14T18:12:27.071Z,65.00
2017-10-14T18:14:54.723Z,59.37
2017-10-14T18:17:22.489Z,63.17
2017-10-14T18:19:50.137Z,62.87
2017-10-14T18:22:17.673Z,69.23
2017-10-14T18:24:45.163Z,66.83
2017-10-14T18:27:12.661Z,66.43
2017-10-14T18:29:40.224Z,164.57
2017-10-14T18:32:07.734Z,78.10
2017-10-14T18:34:35.233Z,87.77
2017-10-14T18:37:02.772Z,79.33
2017-10-14T18:39:30.298Z,70.07
2017-10-14T18:41:57.783Z,83.67
2017-10-14T18:44:25.322Z,69.20
2017-10-14T18:46:52.867Z,65.37
2017-10-14T18:49:20.543Z,81.13
2017-10-14T18:51:48.063Z,83.43
2017-10-14T18:54:15.565Z,64.20
2017-10-14T18:56:43.128Z,69.23
2017-10-14T18:59:10.627Z,84.50
2017-10-14T19:01:38.145Z,61.93
2017-10-14T19:04:05.667Z,57.00
2017-10-14T19:06:33.202Z,60.30
2017-10-14T19:09:00.693Z,59.90
2017-10-14T19:11:28.182Z,81.60
2017-10-14T19:13:55.715Z,59.70
2017-10-14T19:16:23.298Z,81.10
2017-10-14T19:18:50.792Z,45.67
2017-10-14T19:21:18.337Z,52.53
2017-10-14T19:23:45.829Z,82.80
2017-10-14T19:26:13.331Z,61.57
2017-10-14T19:28:40.880Z,56.80
2017-10-14T19:31:08.387Z,53.47
2017-10-14T19:33:35.875Z,52.30
2017-10-14T19:36:03.399Z,41.63
2017-10-14T19:38:30.917Z,61.97
2017-10-14T19:40:58.514Z,116.53
2017-10-14T19:43:26.006Z,74.57
2017-10-14T19:45:53.583Z,41.33
2017-10-14T19:48:21.120Z,64.63
2017-10-14T19:50:48.618Z,93.97
2017-10-14T19:53:16.128Z,108.87
2017-10-14T19:55:43.662Z,52.40
2017-10-14T19:58:11.154Z,69.17
2017-10-14T20:00:38.656Z,55.73
2017-10-14T20:03:06.247Z,47.67
2017-10-14T20:05:33.736Z,34.83
2017-10-14T20:08:01.294Z,54.87
2017-10-14T20:10:28.805Z,44.60
2017-10-14T20:12:56.310Z,85.17
2017-10-14T20:15:23.885Z,48.93
2017-10-14T20:17:51.378Z,38.03
2017-10-14T20:20:18.868Z,41.17
2017-10-14T20:22:46.426Z,40.23
2017-10-14T20:25:14.019Z,30.63
2017-10-14T20:27:41.571Z,39.83
2017-10-14T20:30:09.107Z,31.57
2017-10-14T20:32:36.596Z,75.93
2017-10-14T20:35:04.142Z,68.43
2017-10-14T20:37:31.640Z,54.67
2017-10-14T20:40:00.098Z,37.97
2017-10-14T20:42:27.754Z,30.57
2017-10-14T20:44:55.253Z,39.80
2017-10-14T20:47:22.760Z,29.43
2017-10-14T20:49:50.307Z,31.40
2017-10-14T20:52:17.898Z,41.23
2017-10-14T20:54:45.392Z,40.23
2017-10-14T20:57:12.932Z,113.23
2017-10-14T20:59:40.434Z,90.07
2017-10-14T21:02:07.932Z,43.73
2017-10-14T21:04:35.480Z,34.20
2017-10-14T21:07:02.976Z,60.57
2017-10-14T21:09:30.471Z,50.00
2017-10-14T21:11:58.055Z,39.90
2017-10-14T21:14:25.608Z,54.30
2017-10-14T21:16:53.195Z,67.90
2017-10-14T21:19:20.697Z,50.87
2017-10-14T21:21:48.221Z,65.97
2017-10-14T21:24:15.774Z,67.07
2017-10-14T21:26:43.310Z,89.57
2017-10-14T21:29:10.808Z,55.90
2017-10-14T21:31:38.310Z,53.07
2017-10-14T21:34:05.854Z,64.63
2017-10-14T21:36:33.351Z,44.50
2017-10-14T21:39:00.880Z,42.93
2017-10-14T21:41:28.481Z,88.13
2017-10-14T21:43:55.976Z,55.87
2017-10-14T21:46:23.579Z,79.37
2017-10-14T21:48:51.071Z,90.37
2017-10-14T21:51:18.564Z,46.47
2017-10-14T21:53:46.171Z,73.63
2017-10-14T21:56:13.676Z,125.93
2017-10-14T21:58:41.190Z,40.90
2017-10-14T22:01:08.733Z,36.60
2017-10-14T22:03:36.313Z,50.33
2017-10-14T22:06:03.802Z,51.33
2017-10-14T22:08:31.332Z,55.80
2017-10-14T22:10:58.884Z,65.27
2017-10-14T22:13:26.389Z,49.03
2017-10-14T22:15:53.886Z,39.53
2017-10-14T22:18:21.432Z,48.40
2017-10-14T22:20:48.952Z,58.43
2017-10-14T22:23:16.446Z,63.87
2017-10-14T22:25:44.024Z,72.53
2017-10-14T22:28:11.529Z,47.67
2017-10-14T22:30:39.025Z,40.50
2017-10-14T22:33:06.556Z,43.87
2017-10-14T22:35:34.087Z,43.40
2017-10-14T22:38:01.584Z,33.73
2017-10-14T22:40:29.076Z,35.57
2017-10-14T22:42:56.608Z,57.60
2017-10-14T22:45:24.100Z,75.40
2017-10-14T22:47:51.649Z,56.73
2017-10-14T22:50:19.224Z,49.67
2017-10-14T22:52:46.730Z,76.10
2017-10-14T22:55:14.270Z,41.13
2017-10-14T22:57:41.767Z,40.50
2017-10-14T23:00:09.261Z,33.77
2017-10-14T23:02:36.797Z,52.97
2017-10-14T23:05:04.369Z,43.63
2017-10-14T23:07:31.856Z,29.27
2017-10-14T23:09:59.386Z,41.70
2017-10-14T23:12:26.922Z,46.57
2017-10-14T23:14:54.447Z,54.27
2017-10-14T23:17:21.938Z,40.63
2017-10-14T23:19:49.495Z,45.30
2017-10-14T23:22:17.031Z,42.33
2017-10-14T23:24:44.629Z,42.73
2017-10-14T23:27:12.132Z,33.00
2017-10-14T23:29:39.835Z,35.03
2017-10-14T23:32:07.327Z,30.60
2017-10-14T23:34:34.824Z,44.77
2017-10-14T23:37:02.344Z,38.70
2017-10-14T23:39:29.875Z,55.17
2017-10-14T23:41:57.412Z,36.40
2017-10-14T23:44:24.995Z,39.03
2017-10-14T23:46:52.487Z,51.93
2017-10-14T23:49:20.216Z,36.90
2017-10-14T23:51:47.776Z,49.93
2017-10-14T23:54:15.269Z,38.80
2017-10-14T23:56:42.824Z,91.60
2017-10-14T23:59:10.316Z,58.47
